Terminal Aerodrome Forecast
Issued by NWS Brownsville, TX

Home | Current Version | Previous Version | Text Only | Print | Product List | Glossary On
Versions: 1 2 3 4 5 6 7 8 9 10 11 12 13 14 15
934
FTUS44 KBRO 251720
TAFHRL
TAF
KHRL 251720Z 2518/2618 15020KT P6SM -RA SKC
     FM260000 13014KT P6SM SCT250
     FM260300 11006KT P6SM BKN250 PROB30 2606/2609 P6SM TS BKN050CB
     FM260900 09005KT P6SM OVC050 PROB30 2609/2612 P6SM TS BKN050CB
     FM261200 06005KT P6SM OVC050
      TEMPO 2612/2615 P6SM -SHRA OVC050
     FM261500 08008KT P6SM OVC050
      TEMPO 2615/2618 P6SM -RA OVC050=

USA.gov is the U.S. government's official web portal to all federal, state and local government web resources and services.